createdAt,value
2023-03-21T00:00:55.472Z,100.00
2023-03-21T00:03:24.463Z,100.00
2023-03-21T00:05:53.854Z,100.00
2023-03-21T00:08:24.378Z,100.00
2023-03-21T00:10:59.968Z,100.00
2023-03-21T00:13:32.646Z,100.00
2023-03-21T00:16:22.669Z,100.00
2023-03-21T00:18:57.376Z,100.00
2023-03-21T00:24:16.715Z,100.00
2023-03-21T00:26:45.022Z,100.00
2023-03-21T00:29:12.972Z,100.00
2023-03-21T00:31:40.855Z,100.00
2023-03-21T00:34:09.350Z,100.00
2023-03-21T00:36:38.005Z,100.00
2023-03-21T00:39:08.667Z,100.00
2023-03-21T00:41:42.780Z,100.00
2023-03-21T00:44:15.690Z,100.00
2023-03-21T00:46:54.550Z,100.00
2023-03-21T00:49:33.867Z,100.00
2023-03-21T00:52:38.075Z,100.00
2023-03-21T00:54:54.696Z,100.00
2023-03-21T00:57:37.541Z,100.00
2023-03-21T01:00:12.545Z,100.00
2023-03-21T01:03:14.175Z,100.00
2023-03-21T01:06:07.544Z,100.00
2023-03-21T01:08:58.609Z,100.00
2023-03-21T01:11:28.720Z,100.00
2023-03-21T01:14:10.855Z,100.00
2023-03-21T01:16:43.547Z,100.00
2023-03-21T01:19:25.007Z,100.00
2023-03-21T01:21:55.976Z,100.00
2023-03-21T01:24:23.984Z,100.00
2023-03-21T01:26:51.798Z,100.00
2023-03-21T01:29:20.206Z,100.00
2023-03-21T01:31:48.348Z,100.00
2023-03-21T01:34:16.539Z,100.00
2023-03-21T01:36:45.078Z,100.00
2023-03-21T01:39:17.191Z,100.00
2023-03-21T01:41:45.570Z,100.00
2023-03-21T01:44:25.740Z,100.00
2023-03-21T01:47:12.239Z,100.00
2023-03-21T01:49:51.230Z,100.00
2023-03-21T01:52:38.734Z,100.00
2023-03-21T01:55:13.893Z,100.00
2023-03-21T01:58:07.464Z,100.00
2023-03-21T02:00:51.950Z,100.00
2023-03-21T02:03:35.330Z,100.00
2023-03-21T02:06:49.038Z,100.00
2023-03-21T02:09:51.040Z,100.00
2023-03-21T02:12:21.902Z,100.00
2023-03-21T02:14:52.544Z,100.00
2023-03-21T02:17:36.282Z,100.00
2023-03-21T02:20:29.802Z,100.00
2023-03-21T02:23:10.802Z,100.00
2023-03-21T02:26:41.236Z,100.00
2023-03-21T02:29:39.205Z,100.00
2023-03-21T02:32:46.806Z,100.00
2023-03-21T02:36:14.030Z,100.00
2023-03-21T02:39:12.215Z,100.00
2023-03-21T02:42:02.474Z,100.00
2023-03-21T02:44:43.311Z,100.00
2023-03-21T02:47:27.477Z,100.00
2023-03-21T02:50:02.312Z,100.00
2023-03-21T02:52:39.150Z,100.00
2023-03-21T02:55:15.481Z,100.00
2023-03-21T02:58:06.844Z,100.00
2023-03-21T03:00:43.516Z,100.00
2023-03-21T03:03:24.841Z,100.00
2023-03-21T03:06:01.437Z,100.00
2023-03-21T03:08:45.282Z,100.00
2023-03-21T03:11:41.187Z,100.00
2023-03-21T03:15:00.153Z,100.00
2023-03-21T03:18:05.145Z,100.00
2023-03-21T03:21:07.284Z,100.00
2023-03-21T03:23:35.103Z,100.00
2023-03-21T03:26:09.360Z,100.00
2023-03-21T03:28:42.709Z,100.00
2023-03-21T03:31:22.110Z,100.00
2023-03-21T03:33:58.536Z,100.00
2023-03-21T03:36:34.314Z,100.00
2023-03-21T03:39:11.919Z,100.00
2023-03-21T03:42:21.897Z,100.00
2023-03-21T03:44:58.521Z,100.00
2023-03-21T03:47:57.138Z,100.00
2023-03-21T03:50:33.804Z,100.00
2023-03-21T03:53:18.388Z,100.00
2023-03-21T03:55:51.236Z,100.00
2023-03-21T03:58:24.867Z,100.00
2023-03-21T04:00:57.484Z,100.00
2023-03-21T04:03:25.707Z,100.00
2023-03-21T04:05:54.160Z,100.00
2023-03-21T04:08:23.419Z,100.00
2023-03-21T04:10:53.460Z,100.00
2023-03-21T04:13:22.081Z,100.00
2023-03-21T04:16:01.060Z,100.00
2023-03-21T04:18:28.957Z,100.00
2023-03-21T04:20:57.372Z,100.00
2023-03-21T04:23:26.504Z,100.00
2023-03-21T04:25:57.107Z,100.00
2023-03-21T04:28:37.677Z,100.00
2023-03-21T04:31:25.448Z,100.00
2023-03-21T04:33:59.632Z,100.00
2023-03-21T04:36:33.394Z,100.00
2023-03-21T04:39:01.910Z,100.00
2023-03-21T04:41:31.217Z,100.00
2023-03-21T04:43:59.260Z,100.00
2023-03-21T04:46:27.249Z,100.00
2023-03-21T04:48:55.522Z,100.00
2023-03-21T04:51:23.338Z,100.00
2023-03-21T04:53:52.626Z,100.00
2023-03-21T04:56:21.012Z,100.00
2023-03-21T04:58:48.851Z,100.00
2023-03-21T05:01:20.862Z,100.00
2023-03-21T05:03:49.041Z,100.00
2023-03-21T05:06:16.970Z,100.00
2023-03-21T05:08:44.903Z,100.00
2023-03-21T05:11:12.898Z,100.00
2023-03-21T05:13:41.637Z,100.00
2023-03-21T05:16:10.082Z,100.00
2023-03-21T05:18:38.939Z,100.00
2023-03-21T05:21:18.323Z,100.00
2023-03-21T05:23:54.232Z,100.00
2023-03-21T05:26:23.218Z,100.00
2023-03-21T05:29:07.005Z,100.00
2023-03-21T05:31:35.261Z,100.00
2023-03-21T05:34:07.618Z,100.00
2023-03-21T05:36:36.274Z,100.00
2023-03-21T05:39:06.181Z,100.00
2023-03-21T05:41:35.964Z,100.00
2023-03-21T05:44:05.629Z,100.00
2023-03-21T05:46:33.822Z,100.00
2023-03-21T05:49:01.964Z,100.00
2023-03-21T05:51:29.986Z,100.00
2023-03-21T05:53:57.844Z,100.00
2023-03-21T05:56:26.875Z,100.00
2023-03-21T05:58:58.637Z,100.00
2023-03-21T06:01:26.783Z,100.00
2023-03-21T06:03:59.533Z,100.00
2023-03-21T06:06:29.809Z,100.00
2023-03-21T06:09:00.981Z,100.00
2023-03-21T06:11:32.718Z,100.00
2023-03-21T06:14:19.589Z,100.00
2023-03-21T06:16:54.139Z,100.00
2023-03-21T06:19:22.482Z,100.00
2023-03-21T06:22:00.261Z,100.00
2023-03-21T06:24:28.568Z,100.00
2023-03-21T06:26:56.756Z,100.00
2023-03-21T06:29:25.778Z,100.00
2023-03-21T06:31:53.752Z,100.00
2023-03-21T06:34:22.077Z,100.00
2023-03-21T06:36:52.224Z,100.00
2023-03-21T06:39:21.706Z,100.00
2023-03-21T06:41:49.875Z,100.00
2023-03-21T06:44:17.953Z,100.00
2023-03-21T06:46:52.649Z,100.00
2023-03-21T06:49:20.910Z,100.00
2023-03-21T06:51:49.202Z,100.00
2023-03-21T06:54:20.333Z,100.00
2023-03-21T06:57:03.270Z,100.00
2023-03-21T06:59:34.229Z,100.00
2023-03-21T07:02:05.240Z,100.00
2023-03-21T07:04:36.995Z,100.00
2023-03-21T07:07:06.482Z,100.00
2023-03-21T07:09:34.377Z,100.00
2023-03-21T07:12:05.343Z,100.00
2023-03-21T07:14:47.520Z,100.00
2023-03-21T07:17:15.436Z,100.00
2023-03-21T07:19:44.802Z,100.00
2023-03-21T07:22:13.444Z,100.00
2023-03-21T07:24:41.210Z,100.00
2023-03-21T07:27:09.399Z,100.00
2023-03-21T07:29:37.258Z,100.00
2023-03-21T07:32:05.206Z,100.00
2023-03-21T07:34:33.977Z,100.00
2023-03-21T07:37:05.696Z,100.00
2023-03-21T07:39:35.156Z,100.00
2023-03-21T07:42:03.689Z,100.00
2023-03-21T07:44:39.203Z,100.00
2023-03-21T07:47:07.406Z,100.00
2023-03-21T07:49:35.969Z,100.00
2023-03-21T07:52:05.097Z,100.00
2023-03-21T07:54:33.370Z,100.00
2023-03-21T07:57:01.418Z,100.00
2023-03-21T07:59:29.189Z,100.00
2023-03-21T08:01:57.083Z,100.00
2023-03-21T08:04:26.087Z,100.00
2023-03-21T08:06:54.149Z,100.00
2023-03-21T08:09:22.132Z,100.00
2023-03-21T08:11:49.954Z,100.00
2023-03-21T08:14:17.846Z,100.00
2023-03-21T08:16:45.993Z,100.00
2023-03-21T08:19:13.924Z,100.00
2023-03-21T08:21:41.773Z,100.00
2023-03-21T08:24:09.551Z,100.00
2023-03-21T08:26:38.312Z,100.00
2023-03-21T08:29:06.894Z,100.00
2023-03-21T08:31:34.807Z,100.00
2023-03-21T08:34:02.762Z,100.00
2023-03-21T08:36:31.658Z,100.00
2023-03-21T08:39:05.514Z,100.00
2023-03-21T08:41:34.939Z,100.00
2023-03-21T08:44:04.260Z,100.00
2023-03-21T08:46:32.953Z,100.00
2023-03-21T08:49:01.624Z,100.00
2023-03-21T08:51:29.456Z,100.00
2023-03-21T08:53:57.469Z,100.00
2023-03-21T08:56:25.360Z,100.00
2023-03-21T08:58:53.213Z,100.00
2023-03-21T09:01:21.365Z,100.00
2023-03-21T09:03:49.331Z,100.00
2023-03-21T09:06:17.496Z,100.00
2023-03-21T09:08:46.363Z,100.00
2023-03-21T09:11:14.435Z,100.00
2023-03-21T09:13:42.242Z,100.00
2023-03-21T09:16:10.587Z,100.00
2023-03-21T09:18:49.525Z,100.00
2023-03-21T09:21:20.163Z,100.00
2023-03-21T09:23:50.698Z,100.00
2023-03-21T09:26:19.788Z,100.00
2023-03-21T09:28:48.205Z,100.00
2023-03-21T09:31:22.878Z,100.00
2023-03-21T09:33:52.562Z,100.00
2023-03-21T09:36:22.079Z,100.00
2023-03-21T09:38:50.086Z,100.00
2023-03-21T09:41:57.882Z,100.00
2023-03-21T09:44:39.522Z,100.00
2023-03-21T09:47:21.733Z,100.00
2023-03-21T09:50:01.723Z,100.00
2023-03-21T09:52:48.266Z,100.00
2023-03-21T09:55:21.462Z,100.00
2023-03-21T09:58:03.054Z,100.00
2023-03-21T10:00:37.489Z,100.00
2023-03-21T10:03:29.510Z,100.00
2023-03-21T10:06:01.280Z,100.00
2023-03-21T10:08:41.262Z,100.00
2023-03-21T10:11:21.628Z,100.00
2023-03-21T10:13:56.551Z,100.00
2023-03-21T10:16:34.826Z,100.00
2023-03-21T10:19:13.175Z,100.00
2023-03-21T10:22:03.359Z,100.00
2023-03-21T10:24:34.052Z,100.00
2023-03-21T10:27:03.850Z,100.00
2023-03-21T10:29:43.422Z,100.00
2023-03-21T10:32:15.372Z,100.00
2023-03-21T10:34:48.155Z,100.00
2023-03-21T10:37:16.967Z,99.93
2023-03-21T10:39:51.789Z,100.00
2023-03-21T10:42:29.404Z,100.00
2023-03-21T10:44:58.468Z,100.00
2023-03-21T10:47:30.137Z,100.00
2023-03-21T10:50:08.976Z,100.00
2023-03-21T10:52:47.620Z,99.71
2023-03-21T10:55:24.603Z,98.69
2023-03-21T10:58:00.226Z,100.00
2023-03-21T11:00:34.674Z,100.00
2023-03-21T11:03:03.745Z,94.46
2023-03-21T11:05:40.803Z,96.21
2023-03-21T11:08:19.694Z,97.27
2023-03-21T11:11:03.307Z,92.37
2023-03-21T11:13:40.929Z,94.87
2023-03-21T11:16:09.300Z,96.88
2023-03-21T11:18:49.521Z,97.30
2023-03-21T11:21:17.943Z,91.53
2023-03-21T11:23:49.763Z,89.90
2023-03-21T11:26:26.399Z,91.75
2023-03-21T11:28:55.358Z,92.31
2023-03-21T11:31:37.561Z,89.54
2023-03-21T11:34:09.780Z,89.53
2023-03-21T11:36:41.695Z,87.94
2023-03-21T11:39:31.376Z,92.45
2023-03-21T11:41:59.743Z,92.31
2023-03-21T11:44:44.278Z,92.69
2023-03-21T11:47:12.131Z,85.16
2023-03-21T11:49:39.933Z,87.72
2023-03-21T11:52:53.990Z,87.74
2023-03-21T11:55:24.773Z,81.67
2023-03-21T11:58:14.333Z,82.89
2023-03-21T12:00:54.900Z,83.59
2023-03-21T12:03:49.081Z,82.54
2023-03-21T12:06:36.231Z,84.40
2023-03-21T12:09:23.008Z,84.41
2023-03-21T12:12:00.495Z,84.47
2023-03-21T12:15:03.962Z,84.19
2023-03-21T12:17:50.302Z,88.39
2023-03-21T12:20:57.331Z,88.88
2023-03-21T12:23:35.836Z,87.81
2023-03-21T12:26:03.692Z,89.10
2023-03-21T12:28:39.423Z,89.81
2023-03-21T12:31:21.231Z,90.16
2023-03-21T12:34:17.401Z,89.94
2023-03-21T12:37:07.405Z,85.69
2023-03-21T12:39:37.571Z,88.24
2023-03-21T12:42:20.934Z,89.41
2023-03-21T12:45:00.647Z,88.31
2023-03-21T12:47:32.989Z,85.86
2023-03-21T12:50:15.037Z,86.93
2023-03-21T12:52:47.817Z,87.57
2023-03-21T12:55:22.793Z,87.85
2023-03-21T12:58:09.296Z,87.76
2023-03-21T13:00:47.413Z,88.05
2023-03-21T13:03:40.491Z,87.96
2023-03-21T13:06:13.105Z,87.78
2023-03-21T13:08:44.011Z,87.87
2023-03-21T13:11:16.760Z,87.19
2023-03-21T13:13:47.741Z,86.49
2023-03-21T13:16:23.341Z,85.43
2023-03-21T13:19:22.141Z,84.62
2023-03-21T13:22:20.067Z,85.26
2023-03-21T13:24:56.587Z,87.18
2023-03-21T13:27:24.792Z,87.40
2023-03-21T13:30:06.611Z,86.95
2023-03-21T13:32:43.143Z,87.74
2023-03-21T13:35:33.153Z,88.57
2023-03-21T13:38:17.356Z,89.04
2023-03-21T13:40:47.946Z,89.44
2023-03-21T13:43:40.970Z,89.80
2023-03-21T13:46:27.268Z,90.36
2023-03-21T13:48:59.771Z,89.76
2023-03-21T13:51:28.204Z,90.43
2023-03-21T13:54:08.019Z,91.17
2023-03-21T13:56:59.971Z,91.15
2023-03-21T13:59:34.906Z,91.48
2023-03-21T14:02:11.845Z,91.99
2023-03-21T14:04:53.926Z,91.79
2023-03-21T14:07:40.469Z,91.59
2023-03-21T14:10:33.456Z,92.11
2023-03-21T14:13:02.912Z,92.41
2023-03-21T14:15:57.229Z,92.42
2023-03-21T14:18:51.856Z,91.91
2023-03-21T14:21:24.801Z,91.12
2023-03-21T14:24:02.586Z,91.29
2023-03-21T14:26:34.261Z,90.96
2023-03-21T14:29:07.288Z,91.22
2023-03-21T14:31:39.658Z,90.22
2023-03-21T14:34:10.481Z,89.26
2023-03-21T14:36:43.173Z,89.82
2023-03-21T14:39:18.094Z,91.45
2023-03-21T14:41:49.871Z,91.89
2023-03-21T14:44:28.564Z,91.95
2023-03-21T14:47:05.005Z,91.91
2023-03-21T14:49:38.028Z,92.03
2023-03-21T14:52:11.421Z,91.91
2023-03-21T14:54:45.749Z,90.59
2023-03-21T14:57:18.914Z,91.04
2023-03-21T14:59:51.471Z,91.46
2023-03-21T15:02:24.211Z,90.32
2023-03-21T15:04:56.651Z,91.38
2023-03-21T15:07:32.684Z,91.24
2023-03-21T15:10:04.017Z,91.44
2023-03-21T15:12:32.555Z,91.46
2023-03-21T15:15:01.857Z,91.89
2023-03-21T15:17:30.684Z,91.90
2023-03-21T15:19:58.542Z,92.12
2023-03-21T15:22:33.364Z,92.35
2023-03-21T15:25:06.866Z,92.75
2023-03-21T15:27:40.491Z,92.63
2023-03-21T15:30:20.851Z,92.64
2023-03-21T15:32:49.180Z,92.68
2023-03-21T15:35:22.533Z,93.47
2023-03-21T15:37:56.735Z,93.18
2023-03-21T15:40:31.033Z,93.40
2023-03-21T15:43:20.005Z,93.25
2023-03-21T15:45:56.234Z,93.48
2023-03-21T15:48:29.065Z,93.28
2023-03-21T15:51:06.694Z,93.72
2023-03-21T15:53:37.377Z,93.85
2023-03-21T15:56:06.370Z,94.26
2023-03-21T15:58:41.999Z,94.50
2023-03-21T16:01:20.145Z,94.48
2023-03-21T16:03:56.290Z,94.51
2023-03-21T16:06:30.496Z,94.63
2023-03-21T16:09:14.353Z,94.82
2023-03-21T16:11:50.650Z,95.04
2023-03-21T16:14:20.196Z,94.75
2023-03-21T16:16:49.286Z,95.00
2023-03-21T16:19:17.785Z,95.22
2023-03-21T16:21:46.961Z,95.47
2023-03-21T16:24:14.856Z,95.75
2023-03-21T16:26:46.138Z,96.28
2023-03-21T16:29:15.805Z,96.31
2023-03-21T16:31:44.493Z,96.36
2023-03-21T16:34:12.740Z,96.61
2023-03-21T16:36:43.428Z,96.82
2023-03-21T16:39:22.509Z,97.19
2023-03-21T16:41:51.519Z,97.62
2023-03-21T16:44:20.028Z,97.87
2023-03-21T16:46:48.224Z,97.98
2023-03-21T16:49:27.809Z,98.51
2023-03-21T16:51:57.424Z,99.14
2023-03-21T16:54:25.809Z,99.24
2023-03-21T16:56:55.791Z,99.71
2023-03-21T16:59:23.824Z,99.95
2023-03-21T17:01:51.780Z,99.83
2023-03-21T17:04:19.713Z,99.94
2023-03-21T17:06:50.376Z,99.99
2023-03-21T17:09:21.691Z,100.00
2023-03-21T17:11:50.358Z,100.00
2023-03-21T17:14:18.877Z,100.00
2023-03-21T17:16:47.509Z,100.00
2023-03-21T17:19:18.790Z,100.00
2023-03-21T17:21:47.116Z,100.00
2023-03-21T17:24:15.721Z,100.00
2023-03-21T17:26:43.650Z,100.00
2023-03-21T17:29:15.589Z,100.00
2023-03-21T17:31:47.366Z,100.00
2023-03-21T17:34:16.093Z,100.00
2023-03-21T17:36:46.815Z,100.00
2023-03-21T17:39:19.728Z,100.00
2023-03-21T17:41:47.568Z,100.00
2023-03-21T17:44:16.057Z,100.00
2023-03-21T17:46:44.094Z,100.00
2023-03-21T17:49:16.514Z,100.00
2023-03-21T17:51:46.867Z,100.00
2023-03-21T17:54:14.848Z,100.00
2023-03-21T17:56:42.853Z,100.00
2023-03-21T17:59:13.743Z,100.00
2023-03-21T18:01:42.969Z,100.00
2023-03-21T18:04:11.148Z,100.00
2023-03-21T18:06:39.862Z,100.00
2023-03-21T18:09:11.934Z,100.00
2023-03-21T18:11:41.282Z,100.00
2023-03-21T18:14:16.258Z,100.00
2023-03-21T18:16:47.156Z,100.00
2023-03-21T18:19:15.380Z,100.00
2023-03-21T18:21:45.758Z,100.00
2023-03-21T18:24:14.783Z,100.00
2023-03-21T18:26:43.849Z,100.00
2023-03-21T18:32:08.029Z,100.00
2023-03-21T18:34:38.938Z,100.00
2023-03-21T18:37:08.655Z,100.00
2023-03-21T18:39:38.119Z,100.00
2023-03-21T18:42:06.984Z,100.00
2023-03-21T18:44:46.898Z,100.00
2023-03-21T18:47:15.249Z,100.00
2023-03-21T18:52:32.077Z,100.00
2023-03-21T18:54:59.846Z,100.00
2023-03-21T18:57:36.381Z,100.00
2023-03-21T19:00:13.343Z,100.00
2023-03-21T19:02:46.929Z,100.00
2023-03-21T19:05:18.044Z,100.00
2023-03-21T19:07:48.018Z,100.00
2023-03-21T19:10:19.882Z,100.00
2023-03-21T19:12:50.601Z,100.00
2023-03-21T19:15:21.800Z,100.00
2023-03-21T19:18:37.200Z,100.00
2023-03-21T19:20:44.186Z,100.00
2023-03-21T19:23:12.232Z,100.00
2023-03-21T19:25:40.441Z,100.00
2023-03-21T19:28:08.525Z,100.00
2023-03-21T19:30:37.089Z,100.00
2023-03-21T19:33:06.458Z,100.00
2023-03-21T19:35:37.297Z,100.00
2023-03-21T19:38:05.603Z,100.00
2023-03-21T19:40:34.043Z,100.00
2023-03-21T19:43:21.476Z,100.00
2023-03-21T19:45:49.963Z,100.00
2023-03-21T19:48:18.599Z,100.00
2023-03-21T19:51:13.867Z,100.00
2023-03-21T19:53:34.532Z,100.00
2023-03-21T19:56:04.913Z,100.00
2023-03-21T19:58:38.869Z,100.00
2023-03-21T20:01:06.710Z,100.00
2023-03-21T20:03:34.996Z,100.00
2023-03-21T20:06:06.270Z,100.00
2023-03-21T20:08:57.981Z,100.00
2023-03-21T20:11:23.416Z,100.00
2023-03-21T20:13:51.325Z,100.00
2023-03-21T20:16:20.395Z,100.00
2023-03-21T20:18:48.615Z,100.00
2023-03-21T20:21:18.428Z,100.00
2023-03-21T20:23:51.880Z,100.00
2023-03-21T20:26:20.468Z,100.00
2023-03-21T20:29:01.196Z,100.00
2023-03-21T20:31:36.012Z,100.00
2023-03-21T20:34:03.939Z,100.00
2023-03-21T20:36:40.117Z,100.00
2023-03-21T20:39:08.654Z,100.00
2023-03-21T20:41:37.317Z,100.00
2023-03-21T20:46:53.259Z,100.00
2023-03-21T20:49:23.055Z,100.00
2023-03-21T20:54:39.588Z,100.00
2023-03-21T20:57:07.731Z,100.00
2023-03-21T20:59:35.674Z,100.00
2023-03-21T21:02:03.822Z,100.00
2023-03-21T21:04:49.831Z,100.00
2023-03-21T21:07:22.217Z,100.00
2023-03-21T21:09:50.292Z,100.00
2023-03-21T21:12:19.545Z,100.00
2023-03-21T21:14:48.362Z,100.00
2023-03-21T21:20:17.952Z,100.00
2023-03-21T21:23:00.107Z,100.00
2023-03-21T21:25:32.554Z,100.00
2023-03-21T21:28:03.926Z,100.00
2023-03-21T21:30:32.695Z,100.00
2023-03-21T21:33:00.983Z,100.00
2023-03-21T21:35:29.355Z,100.00
2023-03-21T21:37:57.278Z,100.00
2023-03-21T21:40:25.789Z,100.00
2023-03-21T21:42:54.415Z,100.00
2023-03-21T21:45:22.422Z,100.00
2023-03-21T21:47:51.149Z,100.00
2023-03-21T21:50:22.044Z,100.00
2023-03-21T21:52:52.864Z,100.00
2023-03-21T21:55:21.709Z,100.00
2023-03-21T21:57:50.795Z,100.00
2023-03-21T22:00:20.049Z,100.00
2023-03-21T22:02:48.129Z,100.00
2023-03-21T22:05:19.066Z,100.00
2023-03-21T22:07:48.139Z,100.00
2023-03-21T22:10:16.392Z,100.00
2023-03-21T22:12:44.317Z,100.00
2023-03-21T22:15:12.501Z,100.00
2023-03-21T22:17:41.212Z,100.00
2023-03-21T22:20:09.978Z,100.00
2023-03-21T22:22:38.294Z,100.00
2023-03-21T22:25:08.995Z,100.00
2023-03-21T22:27:37.226Z,100.00
2023-03-21T22:30:08.038Z,100.00
2023-03-21T22:32:38.243Z,100.00
2023-03-21T22:35:08.826Z,100.00
2023-03-21T22:37:40.346Z,100.00
2023-03-21T22:40:11.289Z,100.00
2023-03-21T22:42:40.329Z,100.00
2023-03-21T22:45:10.890Z,100.00
2023-03-21T22:47:39.195Z,100.00
2023-03-21T22:50:07.636Z,100.00
2023-03-21T22:52:35.739Z,100.00
2023-03-21T22:55:03.751Z,100.00
2023-03-21T22:57:31.553Z,100.00
2023-03-21T22:59:59.423Z,100.00
2023-03-21T23:02:27.635Z,100.00
2023-03-21T23:04:55.966Z,100.00
2023-03-21T23:07:23.849Z,100.00
2023-03-21T23:09:51.878Z,100.00
2023-03-21T23:12:19.803Z,100.00
2023-03-21T23:14:47.663Z,100.00
2023-03-21T23:17:16.455Z,100.00
2023-03-21T23:19:44.455Z,100.00
2023-03-21T23:22:12.230Z,100.00
2023-03-21T23:24:40.111Z,100.00
2023-03-21T23:27:07.901Z,100.00
2023-03-21T23:29:35.718Z,100.00
2023-03-21T23:32:03.681Z,100.00
2023-03-21T23:34:31.664Z,100.00
2023-03-21T23:36:59.522Z,100.00
2023-03-21T23:39:28.404Z,100.00
2023-03-21T23:41:58.215Z,100.00
2023-03-21T23:44:26.475Z,100.00
2023-03-21T23:46:55.258Z,100.00
2023-03-21T23:49:23.114Z,100.00
2023-03-21T23:51:51.043Z,100.00
2023-03-21T23:54:18.965Z,100.00
2023-03-21T23:56:46.758Z,100.00
2023-03-21T23:59:14.629Z,100.00
